AirNav   Everest Fuels
 
 346 users online  

12NY T & C Acres Airport
Richard Springs, New York, USA

GOING TO RICHARD SPRINGS?


FAA INFORMATION EFFECTIVE 18 JUNE 2020

Location

FAA Identifier: 12NY
Lat/Long: 42-53-02.0500N 074-55-52.8400W
42-53.034167N 074-55.880667W
42.8839028,-74.9313444
(estimated)
Elevation: 1566 ft. / 477 m (estimated)
From city: 3 miles ENE of RICHARD SPRINGS, NY
Time zone: UTC -4 (UTC -5 during Standard Time)
Zip code: 13439

Airport Operations

Airport use: Private use. Permission required prior to landing
Activation date: 09/2017
Control tower: no
ARTCC: BOSTON CENTER
FSS: BUFFALO FLIGHT SERVICE STATION
Attendance: 
Segmented circle: no

Nearby radio navigation aids

VOR radial/distance  VOR name  Freq  Var
UCAr142/13.3UTICA VORTAC111.2012W
RKAr039/28.5ROCKDALE VOR/DME112.6011W
GGTr093/39.8GEORGETOWN VORTAC117.8011W

 
NDB name  Hdg/Dist  Freq  Var  ID
JOHNSTOWN269/27.252314WJJH .--- .--- ....

Airport Services

Runway Information

Runway 10/28

Dimensions: 1600 x 50 ft. / 488 x 15 m
Surface: turf
RUNWAY 10  RUNWAY 28
Traffic pattern: leftleft

Airport Ownership and Management from official FAA records

Ownership: Privately-owned
Owner: TIMOTHY DOWNING
467 EARL RD
RICHFIELD SPRINGS, NY 13439
Phone 315-858-6956

Airport Operational Statistics

Aircraft based on the field: 1
Single engine airplanes: 1
    

Additional Remarks

FOR CD CTC SYRACUSE APCH AT 315-455-6218.

Instrument Procedures

There are no published instrument procedures at 12NY.

Some nearby airports with instrument procedures:

N66 - Albert S Nader Regional Airport (22 nm S)
NY0 - Fulton County Airport (27 nm E)
KVGC - Hamilton Municipal Airport (28 nm W)
KRME - Griffiss International Airport (30 nm NW)
KOIC - LT Warren Eaton Airport (32 nm SW)
 
Loc | Ops | Rwys | IFR | FBO | Links
Com | Nav | Svcs | Stats | Notes
Aerial photo
No photo
 
Airport distance calculator
Flying to T & C Acres Airport? Find the distance to fly.

From to 12NY

Sunrise and sunset
Times for 10-Jul-2020
 Local
(UTC-4)
 Zulu
(UTC)
Morning civil twilight04:5808:58
Sunrise05:3209:32
Sunset20:3800:38
Evening civil twilight21:1201:12

Current date and time
Zulu (UTC)  10-Jul-2020 06:55:36
Local (UTC-4)  10-Jul-2020 02:55:36
 
METAR
KNY0 
27nm E 
100638Z AUTO 06003KT 10SM CLR 21/21 A3001 RMK AO2
KRME 
29nm NW 
100553Z AUTO 11003KT 10SM CLR 24/21 A2997 RMK AO2 SLP141 T02390206 10317 20239 53006
KSCH 
45nm E 
100154Z 00000KT 15SM CLR 28/20 A2996
TAF
KRME 
29nm NW 
100542Z 1006/1106 00000KT P6SM FEW230 FM101700 12006KT P6SM BKN060 FM110000 11007KT 6SM -SHRA OVC045 FM110200 10005KT 5SM -RA OVC020
NOTAMs
Click for the latest NOTAMs
NOTAMs are issued by the DoD/FAA and will open in a separate window not controlled by AirNav.

 

 
 

Would you like to see your business listed on this page?

 If your business provides an interesting product or service to pilots, flight crews, aircraft, or users of the T & C Acres Airport, you should consider listing it here.  To start the listing process, click on the button below
 
Add a business
 

Other Pages about T & C Acres Airport

Update a link
 
Copyright © AirNav, LLC. All rights reserved. Privacy Policy  Contact